Time;durP1;ratioP1;P1;durP2;ratioP2;P2;SDS_P1;SDS_P2;PMS_P1;PMS_P2;Temp;Humidity;BMP_temperature;BMP_pressure;BME280_temperature;BME280_humidity;BME280_pressure;Samples;Min_cycle;Max_cycle;Signal;HPM_P1;HPM_P2
2022/05/08 00:01:16;;;;;;;68.10;56.40;;;;;;;12.88;100.00;99496.40;105010;1271;61276;-72
2022/05/08 00:03:43;;;;;;;72.20;60.10;;;;;;;12.88;100.00;99491.91;105033;1271;61279;-73
2022/05/08 00:06:11;;;;;;;74.20;63.60;;;;;;;12.88;100.00;99489.81;105058;1271;72900;-73
2022/05/08 00:08:38;;;;;;;77.50;65.90;;;;;;;12.88;100.00;99489.06;104990;1271;61332;-73
2022/05/08 00:11:05;;;;;;;80.70;67.30;;;;;;;12.88;100.00;99490.31;105035;1271;61338;-72
2022/05/08 00:13:35;;;;;;;76.80;67.90;;;;;;;12.89;100.00;99493.33;104984;1271;75211;-74
2022/05/08 00:16:02;;;;;;;87.40;72.00;;;;;;;12.87;100.00;99491.61;104996;1271;69069;-74
2022/05/08 00:18:29;;;;;;;81.10;68.80;;;;;;;12.88;100.00;99486.43;104907;1272;73167;-72
2022/05/08 00:20:56;;;;;;;84.20;70.40;;;;;;;12.89;100.00;99481.20;105032;1271;61278;-72
2022/05/08 00:23:23;;;;;;;84.50;68.80;;;;;;;12.91;100.00;99479.27;105001;1271;61275;-73
2022/05/08 00:25:49;;;;;;;81.80;68.20;;;;;;;12.90;100.00;99475.19;105005;1271;75124;-74
2022/05/08 00:28:16;;;;;;;82.60;67.10;;;;;;;12.91;100.00;99471.77;105036;1271;69177;-73
2022/05/08 00:30:42;;;;;;;77.70;65.50;;;;;;;12.90;100.00;99463.59;105020;1271;74302;-75
2022/05/08 00:33:09;;;;;;;74.90;64.20;;;;;;;12.89;100.00;99462.81;104829;1272;61375;-73
2022/05/08 00:35:35;;;;;;;74.90;64.00;;;;;;;12.85;100.00;99459.88;105018;1271;61847;-74
2022/05/08 00:38:02;;;;;;;74.20;62.20;;;;;;;12.81;100.00;99454.85;104969;1271;61360;-72
2022/05/08 00:40:32;;;;;;;73.00;60.80;;;;;;;12.77;100.00;99458.64;105025;1271;69408;-73
2022/05/08 00:43:28;;;;;;;71.70;62.40;;;;;;;12.73;100.00;99458.88;104989;1271;73121;-73
2022/05/08 00:45:55;;;;;;;77.70;68.80;;;;;;;12.72;100.00;99460.79;104958;1271;61310;-71
2022/05/08 00:48:22;;;;;;;85.10;73.40;;;;;;;12.72;100.00;99459.72;104996;1271;61269;-72
2022/05/08 00:50:51;;;;;;;87.50;72.80;;;;;;;12.73;100.00;99461.23;104935;1271;75098;-73
2022/05/08 00:53:19;;;;;;;79.60;70.90;;;;;;;12.75;100.00;99459.11;105047;1271;68307;-69
2022/05/08 00:55:46;;;;;;;82.20;73.70;;;;;;;12.76;100.00;99460.88;104980;1271;73343;-73
2022/05/08 00:58:15;;;;;;;79.20;70.70;;;;;;;12.73;100.00;99466.17;105013;1271;61287;-74
2022/05/08 01:00:42;;;;;;;79.10;70.50;;;;;;;12.71;100.00;99463.48;105031;1271;62318;-73
2022/05/08 01:03:11;;;;;;;80.80;71.70;;;;;;;12.68;100.00;99462.27;105000;1271;76043;-73
2022/05/08 01:05:41;;;;;;;80.90;70.70;;;;;;;12.66;100.00;99463.27;105073;1271;66503;-73
2022/05/08 01:08:09;;;;;;;82.20;73.30;;;;;;;12.66;100.00;99461.17;105054;1271;73770;-72
2022/05/08 01:10:37;;;;;;;80.30;71.60;;;;;;;12.64;100.00;99460.74;104936;1271;61272;-74
2022/05/08 01:13:05;;;;;;;83.70;73.00;;;;;;;12.63;100.00;99458.72;104910;1271;61997;-73
2022/05/08 01:15:43;;;;;;;81.60;72.60;;;;;;;12.61;100.00;99458.81;104743;1272;75081;-72
2022/05/08 01:18:14;;;;;;;79.40;70.70;;;;;;;12.58;100.00;99461.16;104986;1271;70209;-72
2022/05/08 01:20:42;;;;;;;83.50;72.90;;;;;;;12.57;100.00;99459.14;105033;1271;74374;-72
2022/05/08 01:23:11;;;;;;;84.40;74.80;;;;;;;12.57;100.00;99456.29;105202;1271;61284;-72
2022/05/08 01:26:08;;;;;;;85.50;76.00;;;;;;;12.57;100.00;99456.29;105246;1271;61351;-72
2022/05/08 01:28:34;;;;;;;86.40;75.30;;;;;;;12.58;100.00;99455.32;104720;1277;73481;-72
2022/05/08 01:31:01;;;;;;;85.10;72.80;;;;;;;12.59;100.00;99455.97;104448;1277;70379;-72
2022/05/08 01:33:29;;;;;;;83.50;71.70;;;;;;;12.58;100.00;99458.12;104433;1278;72123;-72
2022/05/08 01:35:56;;;;;;;79.40;69.20;;;;;;;12.58;100.00;99453.35;104442;1277;61453;-73
2022/05/08 01:38:24;;;;;;;79.40;70.50;;;;;;;12.56;100.00;99455.63;104513;1277;61343;-72
2022/05/08 01:40:50;;;;;;;79.10;68.00;;;;;;;12.55;100.00;99457.08;104459;1277;76413;-73
2022/05/08 01:43:17;;;;;;;79.90;70.70;;;;;;;12.54;100.00;99456.67;104284;1277;61469;-72
2022/05/08 01:45:43;;;;;;;83.70;71.70;;;;;;;12.52;100.00;99453.89;104491;1278;61384;-72
2022/05/08 01:48:22;;;;;;;82.80;73.90;;;;;;;12.51;100.00;99457.86;104478;1277;61451;-72
2022/05/08 01:50:58;;;;;;;85.00;75.30;;;;;;;12.51;100.00;99457.16;104473;1277;61409;-72
2022/05/08 01:53:27;;;;;;;82.50;73.20;;;;;;;12.50;100.00;99452.05;104434;1278;75783;-73
2022/05/08 01:55:56;;;;;;;78.60;70.10;;;;;;;12.50;100.00;99453.32;104484;1277;69208;-72
2022/05/08 01:58:27;;;;;;;81.20;69.30;;;;;;;12.49;100.00;99455.00;104486;1277;73210;-73
2022/05/08 02:00:55;;;;;;;82.00;70.80;;;;;;;12.47;100.00;99452.11;104484;1278;61490;-73
2022/05/08 02:03:24;;;;;;;75.30;66.90;;;;;;;12.45;100.00;99450.10;104310;1278;61294;-72
2022/05/08 02:05:51;;;;;;;80.10;69.10;;;;;;;12.45;100.00;99450.09;104793;1271;76586;-72
2022/05/08 02:08:18;;;;;;;74.90;66.80;;;;;;;12.44;100.00;99443.92;105015;1271;70311;-72
2022/05/08 02:10:45;;;;;;;79.00;67.70;;;;;;;12.42;100.00;99445.84;105009;1271;73279;-74
2022/05/08 02:13:12;;;;;;;81.60;70.00;;;;;;;12.41;100.00;99446.65;105000;1271;61377;-73
2022/05/08 02:15:39;;;;;;;77.20;68.50;;;;;;;12.41;100.00;99445.77;105033;1271;61356;-73
2022/05/08 02:18:09;;;;;;;75.60;67.40;;;;;;;12.42;100.00;99449.45;105021;1271;76149;-74
2022/05/08 02:20:39;;;;;;;73.00;64.60;;;;;;;12.43;100.00;99447.92;104905;1272;69305;-73
2022/05/08 02:23:07;;;;;;;73.80;65.70;;;;;;;12.44;100.00;99451.56;105017;1271;73808;-73
2022/05/08 02:25:34;;;;;;;71.80;63.30;;;;;;;12.45;100.00;99449.02;104979;1271;61298;-73
2022/05/08 02:28:00;;;;;;;74.30;63.50;;;;;;;12.46;100.00;99446.49;104866;1271;61528;-73
2022/05/08 02:30:28;;;;;;;72.90;64.90;;;;;;;12.46;100.00;99445.62;104991;1271;76025;-71
2022/05/08 02:32:56;;;;;;;74.00;65.90;;;;;;;12.46;100.00;99447.52;104889;1274;69100;-73
2022/05/08 02:35:23;;;;;;;75.90;67.70;;;;;;;12.45;100.00;99450.25;105003;1271;73299;-74
2022/05/08 02:37:53;;;;;;;79.90;68.70;;;;;;;12.43;100.00;99447.04;105029;1271;61370;-73
2022/05/08 02:40:24;;;;;;;75.60;67.40;;;;;;;12.41;100.00;99444.10;104987;1271;61160;-72
2022/05/08 02:42:52;;;;;;;74.50;66.20;;;;;;;12.40;100.00;99445.44;105004;1271;75476;-72
2022/05/08 02:45:20;;;;;;;75.10;65.50;;;;;;;12.37;100.00;99449.20;105010;1271;69412;-72
2022/05/08 02:47:47;;;;;;;72.20;64.20;;;;;;;12.35;100.00;99450.63;104984;1271;72820;-72
2022/05/08 02:50:14;;;;;;;73.90;65.50;;;;;;;12.33;100.00;99452.88;105004;1271;61374;-73
2022/05/08 02:52:42;;;;;;;74.00;65.70;;;;;;;12.32;100.00;99457.41;104974;1271;61386;-73
2022/05/08 03:00:43;;;;;;;73.00;65.10;;;;;;;12.29;100.00;99464.31;104994;1271;73477;-73
2022/05/08 03:03:11;;;;;;;70.00;62.40;;;;;;;12.30;100.00;99464.83;104815;1274;61570;-72
2022/05/08 03:05:41;;;;;;;72.40;64.40;;;;;;;12.28;100.00;99461.36;104960;1271;61566;-74
2022/05/08 03:08:07;;;;;;;72.60;64.80;;;;;;;12.32;100.00;99462.23;105036;1271;76422;-71
2022/05/08 03:13:20;;;;;;;64.50;57.70;;;;;;;12.32;100.00;99464.88;104949;1271;74085;-72
2022/05/08 03:15:47;;;;;;;71.70;63.90;;;;;;;12.32;100.00;99466.70;105002;1271;61387;-69
2022/05/08 03:18:14;;;;;;;73.40;63.60;;;;;;;12.31;100.00;99466.73;104967;1271;61863;-73
2022/05/08 03:20:41;;;;;;;73.10;64.60;;;;;;;12.32;100.00;99468.45;104915;1274;61200;-72
2022/05/08 03:23:07;;;;;;;71.50;62.60;;;;;;;12.34;100.00;99469.22;104949;1274;61303;-73
2022/05/08 03:25:34;;;;;;;73.50;64.10;;;;;;;12.36;100.00;99470.85;104960;1274;61362;-73
2022/05/08 03:28:01;;;;;;;71.90;64.10;;;;;;;12.38;100.00;99472.65;104817;1274;61397;-72
2022/05/08 03:30:28;;;;;;;74.60;66.60;;;;;;;12.41;100.00;99474.42;104970;1274;61302;-73
2022/05/08 03:32:57;;;;;;;72.70;64.90;;;;;;;12.44;100.00;99477.25;104855;1274;76129;-74
2022/05/08 03:35:25;;;;;;;71.80;63.90;;;;;;;12.47;100.00;99475.46;104954;1274;69223;-73
2022/05/08 03:37:52;;;;;;;71.40;63.60;;;;;;;12.51;100.00;99478.97;104916;1274;73277;-71
2022/05/08 03:40:18;;;;;;;75.10;63.80;;;;;;;12.54;100.00;99481.21;104968;1274;61287;-73
2022/05/08 03:42:45;;;;;;;68.20;60.80;;;;;;;12.57;100.00;99483.70;104884;1274;61221;-72
2022/05/08 03:45:11;;;;;;;66.90;59.60;;;;;;;12.60;100.00;99482.60;104929;1274;61279;-73
2022/05/08 03:47:37;;;;;;;67.90;59.70;;;;;;;12.64;100.00;99482.67;104940;1274;61325;-73
2022/05/08 03:50:06;;;;;;;65.10;58.00;;;;;;;12.67;100.00;99486.61;104842;1274;61371;-71
2022/05/08 03:52:34;;;;;;;65.30;58.30;;;;;;;12.70;100.00;99486.21;104860;1274;62702;-73
2022/05/08 03:55:02;;;;;;;67.20;58.70;;;;;;;12.73;100.00;99490.60;104940;1274;62311;-75
2022/05/08 03:57:29;;;;;;;67.50;59.00;;;;;;;12.77;100.00;99491.43;104946;1274;75246;-75
2022/05/08 03:59:55;;;;;;;64.10;56.90;;;;;;;12.81;100.00;99492.95;104939;1274;68370;-74
2022/05/08 04:02:21;;;;;;;63.30;56.80;;;;;;;12.85;100.00;99492.29;104895;1274;61297;-74
2022/05/08 04:04:48;;;;;;;65.00;58.00;;;;;;;12.90;100.00;99498.95;104770;1275;61496;-73
2022/05/08 04:07:14;;;;;;;67.00;59.00;;;;;;;12.93;100.00;99498.73;104894;1274;61278;-73
2022/05/08 04:09:41;;;;;;;70.20;62.60;;;;;;;12.96;100.00;99504.55;104894;1274;61381;-73
2022/05/08 04:12:07;;;;;;;71.70;64.10;;;;;;;13.02;100.00;99505.23;104967;1274;61291;-73
2022/05/08 04:14:34;;;;;;;70.70;63.00;;;;;;;13.07;100.00;99506.33;104927;1274;61329;-73
2022/05/08 04:17:01;;;;;;;74.60;66.30;;;;;;;13.11;100.00;99506.73;104911;1273;61357;-72
2022/05/08 04:19:28;;;;;;;74.00;66.00;;;;;;;13.14;100.00;99508.90;104846;1274;61337;-73
2022/05/08 04:24:16;;;;;;;75.40;67.00;;;;;;;13.16;100.00;99508.91;104767;1277;61403;-72
2022/05/08 04:24:42;;;;;;;76.70;67.60;;;;;;;13.22;100.00;99506.92;104918;1274;70269;-72
2022/05/08 04:27:08;;;;;;;77.10;68.90;;;;;;;13.27;100.00;99506.73;104941;1274;73359;-72
2022/05/08 04:29:35;;;;;;;76.70;68.70;;;;;;;13.34;100.00;99514.85;104933;1274;61339;-72
2022/05/08 04:32:02;;;;;;;83.80;74.50;;;;;;;13.42;100.00;99516.08;104912;1274;61827;-72
2022/05/08 04:34:29;;;;;;;86.20;76.70;;;;;;;13.47;100.00;99518.06;104908;1274;76242;-72
2022/05/08 04:36:55;;;;;;;86.30;77.00;;;;;;;13.46;100.00;99515.58;104927;1274;61358;-73
2022/05/08 04:39:22;;;;;;;86.60;77.40;;;;;;;13.47;100.00;99517.47;104919;1274;74361;-72
2022/05/08 04:41:48;;;;;;;89.00;79.30;;;;;;;13.52;100.00;99516.40;104939;1274;61400;-73
2022/05/08 04:44:15;;;;;;;80.70;72.20;;;;;;;13.61;100.00;99518.80;104953;1274;61417;-71
2022/05/08 04:46:41;;;;;;;81.40;72.80;;;;;;;13.71;100.00;99516.53;104956;1274;61421;-72
2022/05/08 04:49:08;;;;;;;79.10;70.40;;;;;;;13.79;100.00;99517.20;104967;1274;61384;-72
2022/05/08 04:51:34;;;;;;;75.40;67.10;;;;;;;13.86;100.00;99516.30;104927;1274;61281;-73
2022/05/08 04:54:01;;;;;;;75.80;67.70;;;;;;;13.94;100.00;99520.73;104659;1275;61510;-74
2022/05/08 04:56:29;;;;;;;76.00;67.70;;;;;;;14.00;100.00;99523.52;104909;1274;61405;-71
2022/05/08 04:58:56;;;;;;;77.40;67.90;;;;;;;14.09;100.00;99522.73;104940;1273;75506;-72
2022/05/08 05:01:23;;;;;;;67.60;60.70;;;;;;;14.17;100.00;99523.34;104757;1277;68703;-73
2022/05/08 05:03:50;;;;;;;68.40;61.10;;;;;;;14.25;100.00;99524.15;104742;1275;74276;-74
2022/05/08 05:06:17;;;;;;;62.10;54.20;;;;;;;14.34;100.00;99526.59;104935;1274;61407;-71
2022/05/08 05:08:44;;;;;;;61.50;55.20;;;;;;;14.40;100.00;99529.50;104952;1274;61291;-73
2022/05/08 05:11:10;;;;;;;59.20;52.80;;;;;;;14.49;100.00;99529.42;104955;1274;76232;-70
2022/05/08 05:13:38;;;;;;;60.00;53.60;;;;;;;14.60;100.00;99529.48;104919;1274;70190;-71
2022/05/08 05:16:05;;;;;;;56.50;50.50;;;;;;;14.71;100.00;99530.43;104900;1274;74096;-72
2022/05/08 05:18:32;;;;;;;53.40;47.80;;;;;;;14.80;100.00;99527.99;104946;1274;61330;-72
2022/05/08 05:20:58;;;;;;;55.10;49.40;;;;;;;14.84;100.00;99535.17;104956;1274;62022;-72
2022/05/08 05:23:25;;;;;;;52.80;47.40;;;;;;;14.93;100.00;99533.23;104769;1274;61475;-73
2022/05/08 05:25:51;;;;;;;52.80;47.20;;;;;;;15.04;100.00;99533.53;104935;1274;61249;-73
2022/05/08 05:28:18;;;;;;;53.80;48.30;;;;;;;15.16;100.00;99534.20;104816;1274;61334;-72
2022/05/08 05:30:45;;;;;;;50.60;45.30;;;;;;;15.27;100.00;99539.23;104938;1274;61320;-74
2022/05/08 05:33:15;;;;;;;49.90;44.60;;;;;;;15.35;100.00;99541.10;104975;1274;61718;-73
2022/05/08 05:35:42;;;;;;;52.80;47.10;;;;;;;15.45;100.00;99542.16;104961;1274;75232;-72
2022/05/08 05:38:09;;;;;;;50.70;45.60;;;;;;;15.57;100.00;99542.79;104975;1274;70521;-73
2022/05/08 05:40:35;;;;;;;51.20;45.40;;;;;;;15.66;100.00;99549.41;104933;1274;61391;-71
2022/05/08 05:43:02;;;;;;;48.90;43.90;;;;;;;15.70;100.00;99549.55;104974;1274;61367;-73
2022/05/08 05:45:29;;;;;;;49.60;44.50;;;;;;;15.71;100.00;99550.30;105022;1274;62062;-74
2022/05/08 05:47:59;;;;;;;48.30;43.50;;;;;;;15.78;100.00;99553.65;104956;1274;75415;-72
2022/05/08 05:50:26;;;;;;;47.60;42.70;;;;;;;15.88;100.00;99552.01;104974;1273;69297;-73
2022/05/08 05:52:53;;;;;;;49.40;44.40;;;;;;;16.03;100.00;99556.02;104995;1274;74316;-72
2022/05/08 05:55:20;;;;;;;48.30;43.30;;;;;;;16.24;100.00;99553.98;104951;1274;61289;-73
2022/05/08 05:57:47;;;;;;;47.20;42.30;;;;;;;16.71;100.00;99554.96;104932;1274;61414;-74
2022/05/08 06:00:18;;;;;;;46.20;41.60;;;;;;;17.34;100.00;99549.65;104937;1274;75048;-72
2022/05/08 06:02:46;;;;;;;47.30;42.30;;;;;;;17.70;100.00;99549.14;104949;1274;69367;-73
2022/05/08 06:05:14;;;;;;;42.60;38.30;;;;;;;17.86;100.00;99551.77;105006;1272;72417;-73
2022/05/08 06:07:44;;;;;;;44.30;39.70;;;;;;;18.00;100.00;99549.64;104964;1274;61439;-73
2022/05/08 06:10:12;;;;;;;44.40;40.00;;;;;;;18.10;100.00;99551.64;104948;1274;61281;-74
2022/05/08 06:12:39;;;;;;;43.00;38.70;;;;;;;18.25;100.00;99549.15;104985;1274;75272;-73
2022/05/08 06:15:08;;;;;;;44.10;39.50;;;;;;;18.48;100.00;99548.15;104917;1274;69230;-72
2022/05/08 06:17:34;;;;;;;41.50;37.40;;;;;;;18.55;100.00;99545.59;104906;1274;72623;-74
2022/05/08 06:20:01;;;;;;;38.40;34.40;;;;;;;18.59;100.00;99548.08;104905;1274;61447;-73
2022/05/08 06:22:28;;;;;;;36.20;32.70;;;;;;;18.89;100.00;99549.63;104953;1274;61849;-73
2022/05/08 06:24:54;;;;;;;37.00;33.40;;;;;;;19.20;100.00;99550.95;104987;1274;76223;-73
2022/05/08 06:27:21;;;;;;;35.20;31.80;;;;;;;19.30;100.00;99547.45;104949;1274;61423;-72
2022/05/08 06:29:48;;;;;;;35.00;31.60;;;;;;;19.38;100.00;99550.16;104912;1274;61131;-73
2022/05/08 06:32:15;;;;;;;31.90;28.70;;;;;;;19.50;100.00;99549.35;104927;1274;61353;-73
2022/05/08 06:34:41;;;;;;;33.80;30.70;;;;;;;19.84;100.00;99552.02;104944;1274;61183;-73
2022/05/08 06:37:08;;;;;;;34.10;30.50;;;;;;;20.38;100.00;99547.55;104976;1274;75165;-72
2022/05/08 06:39:37;;;;;;;34.40;30.90;;;;;;;20.80;100.00;99548.54;104888;1274;66761;-74
2022/05/08 06:42:05;;;;;;;33.60;30.60;;;;;;;21.17;100.00;99544.66;104941;1273;72642;-73
2022/05/08 06:44:32;;;;;;;31.50;28.50;;;;;;;21.42;100.00;99539.87;104926;1274;61297;-74
2022/05/08 06:46:59;;;;;;;31.60;28.50;;;;;;;21.52;100.00;99543.39;104931;1274;62591;-74
2022/05/08 06:49:25;;;;;;;32.40;29.30;;;;;;;21.55;100.00;99542.42;104960;1274;76733;-74
2022/05/08 06:51:52;;;;;;;32.60;29.50;;;;;;;21.30;100.00;99544.55;104864;1277;61342;-73
2022/05/08 06:54:19;;;;;;;31.30;28.50;;;;;;;21.23;100.00;99548.48;104963;1274;74160;-73
2022/05/08 06:56:46;;;;;;;31.70;28.70;;;;;;;21.28;100.00;99549.64;104922;1274;61306;-73
2022/05/08 07:01:57;;;;;;;33.60;30.40;;;;;;;21.36;100.00;99549.42;104939;1272;76289;-74
2022/05/08 07:04:24;;;;;;;34.00;30.70;;;;;;;21.22;100.00;99549.75;104961;1274;61320;-74
2022/05/08 07:06:52;;;;;;;33.60;30.40;;;;;;;21.00;100.00;99550.69;104926;1274;61416;-72
2022/05/08 07:09:18;;;;;;;32.60;29.40;;;;;;;20.75;100.00;99557.21;105015;1273;61325;-73
2022/05/08 07:11:47;;;;;;;33.90;30.80;;;;;;;20.64;100.00;99557.42;104979;1274;62021;-73
2022/05/08 07:14:15;;;;;;;32.50;29.30;;;;;;;20.59;100.00;99560.96;104976;1274;75095;-72
2022/05/08 07:16:41;;;;;;;30.70;27.70;;;;;;;20.47;100.00;99558.51;104951;1273;70283;-73
2022/05/08 07:19:08;;;;;;;31.10;28.10;;;;;;;20.35;100.00;99558.42;104958;1274;73295;-73
2022/05/08 07:21:34;;;;;;;28.30;25.50;;;;;;;20.15;100.00;99558.63;104939;1274;61385;-74
2022/05/08 07:24:01;;;;;;;31.00;27.90;;;;;;;20.03;100.00;99556.58;104950;1274;61354;-72
2022/05/08 07:26:28;;;;;;;28.40;25.60;;;;;;;19.91;100.00;99561.86;104956;1274;74703;-74
2022/05/08 07:28:54;;;;;;;27.60;24.90;;;;;;;20.03;100.00;99560.13;104959;1274;61374;-73
2022/05/08 07:31:21;;;;;;;27.90;25.10;;;;;;;20.22;100.00;99556.99;104918;1271;61208;-74
2022/05/08 07:36:12;;;;;;;27.20;24.60;;;;;;;20.33;100.00;99557.41;104647;1274;250986;-73
2022/05/08 07:36:35;;;;;;;26.30;23.80;;;;;;;20.27;100.00;99561.98;104947;1273;62106;-73
2022/05/08 07:39:02;;;;;;;27.70;25.00;;;;;;;20.43;100.00;99561.09;104839;1274;74677;-74
2022/05/08 07:41:30;;;;;;;26.90;24.10;;;;;;;20.49;100.00;99560.16;104920;1274;70687;-72
2022/05/08 07:43:56;;;;;;;25.90;23.50;;;;;;;20.47;100.00;99561.20;104962;1274;73172;-73
2022/05/08 07:46:25;;;;;;;22.70;20.50;;;;;;;20.62;100.00;99565.77;104942;1274;61383;-73
2022/05/08 07:48:52;;;;;;;23.10;20.80;;;;;;;20.65;100.00;99566.59;104875;1273;62205;-73
2022/05/08 07:51:19;;;;;;;23.70;21.20;;;;;;;20.67;100.00;99568.73;104967;1274;76338;-72
2022/05/08 07:53:45;;;;;;;21.70;19.50;;;;;;;20.73;100.00;99568.05;104944;1271;70393;-72
2022/05/08 07:56:12;;;;;;;17.10;15.60;;;;;;;20.82;100.00;99567.04;104954;1273;61333;-72
2022/05/08 07:58:38;;;;;;;16.90;15.20;;;;;;;20.94;100.00;99565.55;104946;1274;61333;-73
2022/05/08 08:01:05;;;;;;;18.20;16.40;;;;;;;21.14;100.00;99567.38;104964;1274;61149;-73
2022/05/08 08:03:33;;;;;;;19.40;17.40;;;;;;;21.38;100.00;99566.40;104938;1274;61289;-73
2022/05/08 08:06:01;;;;;;;17.50;15.80;;;;;;;21.61;100.00;99566.77;104914;1274;69243;-73
2022/05/08 08:08:28;;;;;;;17.50;15.80;;;;;;;21.77;100.00;99569.52;104978;1272;71512;-73
2022/05/08 08:11:03;;;;;;;18.30;16.60;;;;;;;21.96;100.00;99562.16;104952;1274;61302;-73
2022/05/08 08:13:31;;;;;;;16.90;15.40;;;;;;;22.22;100.00;99563.54;104938;1274;61189;-72
2022/05/08 08:15:59;;;;;;;17.50;15.80;;;;;;;22.30;100.00;99564.20;105053;1273;76605;-72
2022/05/08 08:18:26;;;;;;;16.80;15.20;;;;;;;22.17;100.00;99563.33;104991;1273;69735;-71
2022/05/08 08:20:54;;;;;;;16.20;14.60;;;;;;;22.08;100.00;99563.98;104903;1273;73659;-72
2022/05/08 08:23:22;;;;;;;14.50;13.30;;;;;;;22.22;100.00;99563.20;105008;1274;61192;-73
2022/05/08 08:25:48;;;;;;;15.50;13.50;;;;;;;22.36;100.00;99567.52;104910;1274;61326;-71
2022/05/08 08:28:15;;;;;;;14.20;12.90;;;;;;;22.43;100.00;99563.58;104909;1274;76299;-74
2022/05/08 08:30:41;;;;;;;13.80;12.60;;;;;;;22.48;100.00;99564.92;104942;1274;61381;-73
2022/05/08 08:33:08;;;;;;;14.60;13.10;;;;;;;22.56;100.00;99566.05;104933;1274;73156;-73
2022/05/08 08:35:35;;;;;;;13.30;12.00;;;;;;;22.72;100.00;99566.54;104931;1274;61392;-72
2022/05/08 08:38:03;;;;;;;15.10;13.50;;;;;;;22.89;100.00;99568.50;104941;1274;61409;-73
2022/05/08 08:40:31;;;;;;;14.70;13.50;;;;;;;23.08;100.00;99570.82;104943;1272;75209;-74
2022/05/08 08:42:58;;;;;;;13.70;12.40;;;;;;;23.22;99.56;99570.30;104935;1274;69795;-73
2022/05/08 08:48:30;;;;;;;14.10;12.70;;;;;;;23.38;98.43;99568.38;104809;1274;61441;-72
2022/05/08 08:50:59;;;;;;;13.60;12.30;;;;;;;23.45;97.32;99570.52;104783;1274;61915;-73
2022/05/08 08:53:26;;;;;;;12.60;11.50;;;;;;;23.47;97.63;99575.90;104581;1274;75296;-72
2022/05/08 08:55:53;;;;;;;13.20;11.90;;;;;;;23.62;97.28;99574.96;104792;1274;69247;-73
2022/05/08 08:58:21;;;;;;;12.20;11.10;;;;;;;23.61;94.33;99576.34;104778;1274;73478;-73
2022/05/08 09:00:49;;;;;;;12.10;10.80;;;;;;;23.56;93.31;99578.20;104804;1274;61413;-73
2022/05/08 09:03:25;;;;;;;11.70;10.60;;;;;;;23.53;93.20;99577.71;104893;1274;62175;-73
2022/05/08 09:05:55;;;;;;;11.50;10.50;;;;;;;23.49;93.01;99578.23;104842;1274;73431;-72
2022/05/08 09:08:33;;;;;;;11.20;10.20;;;;;;;23.41;93.15;99579.84;104765;1274;69518;-73
2022/05/08 09:11:00;;;;;;;13.70;11.00;;;;;;;23.34;93.26;99583.10;104880;1274;74290;-73
2022/05/08 09:13:31;;;;;;;10.20;9.20;;;;;;;23.39;92.90;99581.34;104976;1274;61339;-73
2022/05/08 09:16:03;;;;;;;11.00;10.10;;;;;;;23.44;91.77;99575.85;104883;1274;61483;-74
2022/05/08 09:18:51;;;;;;;11.80;10.40;;;;;;;23.30;91.48;99577.39;104637;1274;76266;-72
2022/05/08 09:24:14;;;;;;;11.60;10.60;;;;;;;23.08;89.35;99577.11;104946;1272;74692;-72
2022/05/08 09:26:41;;;;;;;10.40;9.60;;;;;;;23.00;90.44;99573.06;104858;1274;61284;-74
2022/05/08 09:29:20;;;;;;;11.70;10.60;;;;;;;22.99;90.66;99577.51;104965;1274;61167;-72
2022/05/08 09:31:46;;;;;;;11.80;10.90;;;;;;;23.02;90.83;99575.11;104967;1274;76505;-73
2022/05/08 09:34:13;;;;;;;11.20;10.10;;;;;;;23.00;90.35;99573.30;104989;1274;61288;-73
2022/05/08 09:36:40;;;;;;;11.70;10.50;;;;;;;23.02;91.12;99571.60;104853;1274;75105;-74
2022/05/08 09:39:07;;;;;;;11.70;10.50;;;;;;;23.22;91.08;99574.64;104964;1273;61386;-73
2022/05/08 09:41:39;;;;;;;11.40;10.30;;;;;;;23.30;89.15;99569.23;104788;1274;61194;-73
2022/05/08 09:44:10;;;;;;;11.80;10.80;;;;;;;23.28;87.07;99567.67;105058;1274;75509;-72
2022/05/08 09:46:44;;;;;;;11.40;10.20;;;;;;;23.01;86.37;99568.63;104943;1274;70213;-74
2022/05/08 09:49:12;;;;;;;12.10;11.00;;;;;;;22.98;87.04;99564.77;104908;1274;73267;-73
2022/05/08 09:51:43;;;;;;;12.00;10.80;;;;;;;23.12;86.01;99566.17;104976;1274;61361;-75
2022/05/08 09:54:11;;;;;;;12.80;10.40;;;;;;;23.19;84.55;99565.22;105012;1274;61332;-75
2022/05/08 09:56:38;;;;;;;12.00;10.80;;;;;;;23.23;82.62;99557.34;104931;1274;75604;-73
2022/05/08 09:59:07;;;;;;;10.70;9.70;;;;;;;23.22;82.32;99559.05;104939;1273;70130;-73
2022/05/08 10:01:34;;;;;;;;;;;;;;;23.32;83.37;99556.34;104952;1274;74478;-72
2022/05/08 10:04:01;;;;;;;11.60;10.60;;;;;;;23.42;83.22;99553.17;104961;1274;61351;-75
2022/05/08 10:06:30;;;;;;;11.40;10.40;;;;;;;23.48;82.32;99550.59;104994;1274;61266;-73
2022/05/08 10:14:33;;;;;;;11.10;10.10;;;;;;;23.79;81.63;99541.10;104949;1274;72893;-72
2022/05/08 10:16:59;;;;;;;11.40;10.20;;;;;;;23.88;80.61;99540.45;104970;1274;61294;-73
2022/05/08 10:19:26;;;;;;;11.00;10.00;;;;;;;23.97;80.81;99539.68;104831;1274;61320;-71
2022/05/08 10:21:55;;;;;;;10.70;9.50;;;;;;;24.03;80.03;99538.70;104932;1274;61180;-73
2022/05/08 10:24:33;;;;;;;10.60;9.60;;;;;;;24.04;77.44;99534.07;104869;1274;67408;-73
2022/05/08 10:27:26;;;;;;;11.70;9.40;;;;;;;24.06;77.81;99531.87;104967;1273;73340;-72
2022/05/08 10:29:55;;;;;;;10.70;9.80;;;;;;;24.16;77.61;99530.30;104978;1274;61371;-72
2022/05/08 10:32:31;;;;;;;10.10;9.20;;;;;;;24.10;76.01;99527.81;104980;1274;61366;-71
2022/05/08 10:35:06;;;;;;;11.30;10.30;;;;;;;23.98;73.15;99524.59;105001;1274;75232;-74
2022/05/08 10:37:34;;;;;;;10.80;9.80;;;;;;;23.76;73.46;99520.02;104960;1274;69464;-72
2022/05/08 10:40:01;;;;;;;9.80;8.90;;;;;;;23.84;72.46;99521.48;104951;1274;71296;-72
2022/05/08 10:42:56;;;;;;;9.90;9.00;;;;;;;24.02;73.43;99524.68;104900;1274;61381;-75
2022/05/08 10:45:32;;;;;;;10.20;9.20;;;;;;;24.19;73.76;99523.45;104991;1274;61243;-74
2022/05/08 10:48:12;;;;;;;10.40;9.50;;;;;;;24.35;73.07;99515.02;104860;1274;76580;-74
2022/05/08 10:50:42;;;;;;;9.20;8.30;;;;;;;24.45;72.34;99516.77;104962;1274;69375;-74
2022/05/08 10:53:26;;;;;;;8.50;7.90;;;;;;;24.46;72.52;99516.19;105038;1273;74069;-73
2022/05/08 10:56:04;;;;;;;9.10;8.20;;;;;;;24.47;72.26;99517.71;104965;1274;61336;-75
2022/05/08 10:58:33;;;;;;;11.30;10.20;;;;;;;24.57;70.30;99512.84;104832;1274;61243;-73
2022/05/08 11:01:02;;;;;;;9.40;8.60;;;;;;;24.55;68.57;99512.02;105049;1274;75001;-74
2022/05/08 11:03:29;;;;;;;9.50;8.70;;;;;;;24.55;65.69;99509.31;104979;1274;70766;-76
2022/05/08 11:05:57;;;;;;;9.30;8.50;;;;;;;24.52;66.83;99505.42;104872;1274;72570;-75
2022/05/08 11:08:29;;;;;;;10.60;9.70;;;;;;;24.59;66.88;99504.16;104950;1274;61260;-74
2022/05/08 11:11:07;;;;;;;9.60;8.60;;;;;;;24.64;66.65;99499.48;105029;1273;61285;-74
2022/05/08 11:13:51;;;;;;;10.00;8.70;;;;;;;24.65;65.68;99493.21;104986;1274;76027;-73
2022/05/08 11:16:44;;;;;;;9.30;8.40;;;;;;;24.59;66.02;99486.66;104968;1274;69385;-76
2022/05/08 11:19:11;;;;;;;9.80;8.90;;;;;;;24.72;66.04;99487.71;104617;1277;73641;-76
2022/05/08 11:21:37;;;;;;;10.80;9.90;;;;;;;24.76;65.21;99490.72;104412;1278;61426;-73
2022/05/08 11:24:04;;;;;;;12.00;8.90;;;;;;;24.69;62.39;99491.06;104476;1277;61203;-73
2022/05/08 11:26:33;;;;;;;10.50;9.60;;;;;;;24.75;62.48;99489.66;104498;1277;76297;-75
2022/05/08 11:29:00;;;;;;;10.30;9.40;;;;;;;24.78;62.67;99482.07;104512;1277;69226;-75
2022/05/08 11:31:30;;;;;;;9.10;8.30;;;;;;;24.80;62.46;99476.61;104494;1277;73133;-77
2022/05/08 11:36:44;;;;;;;9.40;8.50;;;;;;;25.04;62.66;99473.58;104549;1277;61826;-76